Time;durP1;ratioP1;P1;durP2;ratioP2;P2;SDS_P1;SDS_P2;PMS_P1;PMS_P2;Temp;Humidity;BMP_temperature;BMP_pressure;BME280_temperature;BME280_humidity;BME280_pressure;Samples;Min_cycle;Max_cycle;Signal;HPM_P1;HPM_P2
2024/03/24 00:01:16;;;;;;;8.20;1.90;;;6.30;99.90;;;;;;5035053;28;20205;-74
2024/03/24 00:04:01;;;;;;;3.53;2.08;;;6.30;99.90;;;;;;5039739;28;20946;-75
2024/03/24 00:06:47;;;;;;;4.47;1.90;;;6.40;99.90;;;;;;5039141;28;20213;-75
2024/03/24 00:09:31;;;;;;;7.50;2.40;;;6.50;99.90;;;;;;5038176;28;20472;-75
2024/03/24 00:12:17;;;;;;;4.60;2.20;;;6.50;99.90;;;;;;5040565;28;20436;-75
2024/03/24 00:15:02;;;;;;;5.70;2.05;;;6.40;99.90;;;;;;5037714;28;20201;-75
2024/03/24 00:17:48;;;;;;;5.22;2.00;;;6.40;99.90;;;;;;5035737;28;20208;-75
2024/03/24 00:20:33;;;;;;;5.13;2.00;;;6.40;99.90;;;;;;5040109;28;21178;-75
2024/03/24 00:23:19;;;;;;;3.22;2.20;;;6.30;99.90;;;;;;5035000;28;20225;-75
2024/03/24 00:26:04;;;;;;;4.45;1.80;;;6.50;99.90;;;;;;5037473;28;20217;-74
2024/03/24 00:28:49;;;;;;;4.05;2.42;;;6.50;99.90;;;;;;5038884;28;20233;-75
2024/03/24 00:31:34;;;;;;;4.30;1.83;;;6.70;99.90;;;;;;5035123;28;20698;-74
2024/03/24 00:34:21;;;;;;;5.60;2.65;;;6.70;99.90;;;;;;5035796;28;21041;-75
2024/03/24 00:37:06;;;;;;;2.70;1.90;;;6.70;99.90;;;;;;5039208;28;20215;-76
2024/03/24 00:39:52;;;;;;;6.65;2.85;;;6.60;99.90;;;;;;5038175;28;20242;-75
2024/03/24 00:42:37;;;;;;;5.88;2.47;;;6.60;99.90;;;;;;5032042;28;20224;-75
2024/03/24 00:45:22;;;;;;;10.68;2.60;;;6.60;99.90;;;;;;5034717;28;20237;-74
2024/03/24 00:48:07;;;;;;;3.55;2.20;;;6.60;99.90;;;;;;5041252;28;20685;-75
2024/03/24 00:50:55;;;;;;;4.13;2.40;;;6.60;99.90;;;;;;5036529;28;20248;-75
2024/03/24 00:53:40;;;;;;;4.60;2.08;;;6.70;99.90;;;;;;5033572;28;20205;-75
2024/03/24 00:56:25;;;;;;;6.45;3.08;;;6.50;99.90;;;;;;5035981;28;20207;-73
2024/03/24 00:59:10;;;;;;;5.55;2.58;;;6.30;99.90;;;;;;5034884;28;20229;-73
2024/03/24 01:01:56;;;;;;;4.68;2.80;;;6.30;99.90;;;;;;5035993;28;20739;-74
2024/03/24 01:04:40;;;;;;;4.32;2.42;;;6.30;99.90;;;;;;5038139;28;20583;-75
2024/03/24 01:07:29;;;;;;;7.70;2.42;;;6.20;99.90;;;;;;5048511;28;20620;-74
2024/03/24 01:10:14;;;;;;;5.50;2.90;;;6.20;99.90;;;;;;5038253;28;20240;-74
2024/03/24 01:12:59;;;;;;;5.47;2.65;;;6.20;99.90;;;;;;5044007;28;20225;-73
2024/03/24 01:15:45;;;;;;;3.00;2.43;;;6.30;99.90;;;;;;5041385;28;20309;-73
2024/03/24 01:18:30;;;;;;;4.13;2.78;;;6.30;99.90;;;;;;5044531;28;20557;-75
2024/03/24 01:21:15;;;;;;;5.75;2.90;;;6.10;99.90;;;;;;5041229;28;20223;-76
2024/03/24 01:24:03;;;;;;;3.20;2.70;;;6.10;99.90;;;;;;5037135;28;20703;-76
2024/03/24 01:26:48;;;;;;;4.33;2.90;;;6.10;99.90;;;;;;5035343;28;20534;-75
2024/03/24 01:29:34;;;;;;;4.28;3.47;;;6.20;99.90;;;;;;5044047;28;20529;-75
2024/03/24 01:32:18;;;;;;;4.20;3.05;;;6.20;99.90;;;;;;5039641;28;20214;-76
2024/03/24 01:35:05;;;;;;;6.87;3.40;;;6.10;99.90;;;;;;5037809;28;20301;-76
2024/03/24 01:37:49;;;;;;;6.40;3.27;;;6.10;99.90;;;;;;5043939;28;20448;-75
2024/03/24 01:40:36;;;;;;;4.73;3.23;;;6.20;99.90;;;;;;5050238;28;20888;-75
2024/03/24 01:43:20;;;;;;;3.50;2.90;;;6.30;99.90;;;;;;5046713;28;20633;-75
2024/03/24 01:46:06;;;;;;;5.95;3.83;;;6.30;99.90;;;;;;5043201;28;20448;-76
2024/03/24 01:48:51;;;;;;;6.00;3.40;;;6.30;99.90;;;;;;5048975;28;20241;-76
2024/03/24 01:51:37;;;;;;;6.50;3.30;;;6.40;99.90;;;;;;5049141;28;20453;-73
2024/03/24 01:54:22;;;;;;;8.60;3.60;;;6.40;99.90;;;;;;5046073;28;20935;-76
2024/03/24 01:57:09;;;;;;;4.90;2.83;;;6.40;99.90;;;;;;5048270;28;20448;-75
2024/03/24 01:59:53;;;;;;;9.02;3.33;;;6.40;99.90;;;;;;5048610;28;21064;-72
2024/03/24 02:02:39;;;;;;;3.10;2.47;;;6.50;99.90;;;;;;5043364;28;20705;-73
2024/03/24 02:05:24;;;;;;;3.17;2.67;;;6.50;99.90;;;;;;5044266;28;20478;-76
2024/03/24 02:08:10;;;;;;;3.70;2.45;;;6.50;99.90;;;;;;5053777;28;20503;-75
2024/03/24 02:10:55;;;;;;;10.52;3.63;;;6.40;99.90;;;;;;5049854;28;20328;-76
2024/03/24 02:13:41;;;;;;;4.63;2.63;;;6.40;99.90;;;;;;5041136;28;20200;-75
2024/03/24 02:16:26;;;;;;;9.87;3.40;;;6.40;99.90;;;;;;5041216;28;20598;-76
2024/03/24 02:19:12;;;;;;;3.90;2.93;;;6.50;99.90;;;;;;5046960;28;20447;-76
2024/03/24 02:21:57;;;;;;;4.37;2.77;;;6.40;99.90;;;;;;5039266;28;20589;-75
2024/03/24 02:24:44;;;;;;;4.77;2.67;;;6.40;99.90;;;;;;5042360;28;20950;-74
2024/03/24 02:27:28;;;;;;;3.83;2.78;;;6.40;99.90;;;;;;5045517;28;20467;-75
2024/03/24 02:30:14;;;;;;;4.40;2.78;;;6.40;99.90;;;;;;5041561;28;20231;-75
2024/03/24 02:33:00;;;;;;;3.47;2.55;;;6.50;99.90;;;;;;5046295;28;20341;-75
2024/03/24 02:35:47;;;;;;;5.33;3.00;;;6.40;99.90;;;;;;5041287;28;20260;-74
2024/03/24 02:38:32;;;;;;;5.07;2.45;;;6.40;99.90;;;;;;5046078;28;20462;-76
2024/03/24 02:41:19;;;;;;;3.35;2.58;;;6.40;99.90;;;;;;5042640;28;20298;-73
2024/03/24 02:44:04;;;;;;;3.50;2.73;;;6.40;99.90;;;;;;5043406;28;20545;-76
2024/03/24 02:46:49;;;;;;;3.78;2.75;;;6.40;99.90;;;;;;5037747;28;20507;-75
2024/03/24 02:49:34;;;;;;;12.27;3.75;;;6.40;99.90;;;;;;5067349;22;20808;-73
2024/03/24 02:52:19;;;;;;;4.70;2.60;;;6.30;99.90;;;;;;5068107;28;20605;-73
2024/03/24 02:55:04;;;;;;;5.40;3.03;;;6.30;99.90;;;;;;5060769;28;20447;-72
2024/03/24 02:57:51;;;;;;;5.20;3.28;;;6.40;99.90;;;;;;5064219;28;20256;-72
2024/03/24 03:00:36;;;;;;;3.40;2.67;;;6.40;99.90;;;;;;5071730;28;20231;-71
2024/03/24 03:03:22;;;;;;;4.47;3.00;;;6.40;99.90;;;;;;5058694;28;20489;-73
2024/03/24 03:06:06;;;;;;;4.47;2.55;;;6.50;99.90;;;;;;5061296;28;20324;-73
2024/03/24 03:08:52;;;;;;;3.10;2.23;;;6.50;99.90;;;;;;5059381;28;20705;-73
2024/03/24 03:11:37;;;;;;;7.07;2.60;;;6.50;99.90;;;;;;5070997;28;20425;-73
2024/03/24 03:14:24;;;;;;;4.43;3.15;;;6.60;99.90;;;;;;5078491;28;21409;-72
2024/03/24 03:17:09;;;;;;;2.85;2.20;;;6.60;99.90;;;;;;5073182;28;20213;-73
2024/03/24 03:19:55;;;;;;;5.73;2.50;;;6.70;99.90;;;;;;5077994;28;20240;-74
2024/03/24 03:22:40;;;;;;;5.30;2.63;;;6.70;99.90;;;;;;5076595;28;20422;-72
2024/03/24 03:25:25;;;;;;;6.68;2.70;;;6.80;99.90;;;;;;5078066;28;20461;-73
2024/03/24 03:28:10;;;;;;;7.27;2.40;;;6.70;99.90;;;;;;5075504;28;20213;-73
2024/03/24 03:30:57;;;;;;;3.15;2.35;;;6.70;99.90;;;;;;5075690;28;20491;-72
2024/03/24 03:33:42;;;;;;;5.50;3.17;;;6.50;99.90;;;;;;5082428;28;20213;-73
2024/03/24 03:36:27;;;;;;;5.33;2.37;;;6.50;99.90;;;;;;5085366;28;20441;-73
2024/03/24 03:39:12;;;;;;;4.40;2.70;;;6.60;99.90;;;;;;5082304;28;20448;-74
2024/03/24 03:41:59;;;;;;;4.00;2.80;;;6.50;99.90;;;;;;5081112;28;20453;-73
2024/03/24 03:44:46;;;;;;;4.90;2.40;;;6.50;99.90;;;;;;5081533;28;20614;-73
2024/03/24 03:47:33;;;;;;;8.70;3.10;;;6.50;99.90;;;;;;5074219;28;20980;-72
2024/03/24 03:50:17;;;;;;;4.90;2.57;;;6.50;99.90;;;;;;5069691;28;20247;-73
2024/03/24 03:53:03;;;;;;;4.07;2.90;;;6.60;99.90;;;;;;5080506;28;20805;-72
2024/03/24 03:55:50;;;;;;;3.40;2.60;;;6.60;99.90;;;;;;5076659;28;20552;-72
2024/03/24 03:58:36;;;;;;;3.47;2.93;;;6.50;99.90;;;;;;5062750;28;20466;-73
2024/03/24 04:01:21;;;;;;;3.60;2.50;;;6.60;99.90;;;;;;5058377;28;20451;-74
2024/03/24 04:04:08;;;;;;;4.27;2.70;;;6.60;99.90;;;;;;5056912;28;20514;-72
2024/03/24 04:06:53;;;;;;;3.13;2.70;;;6.70;99.90;;;;;;5055806;28;21087;-74
2024/03/24 04:09:39;;;;;;;6.03;2.40;;;6.70;99.90;;;;;;5057207;28;21007;-73
2024/03/24 04:12:24;;;;;;;4.03;2.27;;;6.60;99.90;;;;;;5061542;28;20824;-75
2024/03/24 04:15:10;;;;;;;3.70;3.00;;;6.50;99.90;;;;;;5062826;28;20435;-74
2024/03/24 04:17:55;;;;;;;3.30;2.37;;;6.60;99.90;;;;;;5059480;28;20458;-73
2024/03/24 04:20:42;;;;;;;3.43;2.10;;;6.50;99.90;;;;;;5058489;28;20482;-73
2024/03/24 04:23:28;;;;;;;3.50;2.17;;;6.30;99.90;;;;;;5062790;28;20535;-73
2024/03/24 04:26:12;;;;;;;4.45;1.88;;;6.30;99.90;;;;;;5060469;28;20525;-73
2024/03/24 04:28:58;;;;;;;6.18;2.08;;;6.20;99.90;;;;;;5056806;28;20586;-75
2024/03/24 04:31:43;;;;;;;2.57;1.83;;;6.30;99.90;;;;;;5056419;28;20307;-73
2024/03/24 04:34:28;;;;;;;4.90;1.77;;;6.30;99.90;;;;;;5060750;28;20610;-73
2024/03/24 04:37:14;;;;;;;6.03;2.30;;;6.30;99.90;;;;;;5059779;28;20461;-75
2024/03/24 04:40:00;;;;;;;3.57;1.77;;;6.20;99.90;;;;;;5059100;28;20256;-74
2024/03/24 04:42:46;;;;;;;5.13;2.70;;;6.30;99.90;;;;;;5057933;28;22562;-73
2024/03/24 04:45:31;;;;;;;3.50;2.03;;;6.30;99.90;;;;;;5060718;28;20453;-73
2024/03/24 04:48:17;;;;;;;3.67;1.90;;;6.10;99.90;;;;;;5061587;28;20217;-74
2024/03/24 04:51:03;;;;;;;6.13;2.63;;;6.10;99.90;;;;;;5061125;28;20242;-72
2024/03/24 04:53:50;;;;;;;3.60;2.13;;;6.10;99.90;;;;;;5064310;28;21006;-74
2024/03/24 04:56:35;;;;;;;4.57;1.97;;;6.10;99.90;;;;;;5058468;28;20434;-72
2024/03/24 04:59:20;;;;;;;3.20;1.97;;;6.10;99.90;;;;;;5058030;28;20445;-76
2024/03/24 05:02:06;;;;;;;3.85;1.83;;;6.20;99.90;;;;;;5064276;28;20440;-75
2024/03/24 05:04:51;;;;;;;3.50;2.07;;;6.20;99.90;;;;;;5065495;28;20280;-74
2024/03/24 05:07:36;;;;;;;4.00;2.30;;;6.10;99.90;;;;;;5063751;28;20464;-72
2024/03/24 05:10:23;;;;;;;3.05;1.70;;;6.00;99.90;;;;;;5057790;28;20445;-75
2024/03/24 05:13:08;;;;;;;2.83;1.83;;;5.90;99.90;;;;;;5063862;28;20291;-72
2024/03/24 05:15:54;;;;;;;8.82;2.38;;;5.90;99.90;;;;;;5064775;28;20599;-73
2024/03/24 05:18:39;;;;;;;3.73;2.10;;;5.90;99.90;;;;;;5064279;28;20259;-73
2024/03/24 05:21:25;;;;;;;4.27;2.63;;;6.00;99.90;;;;;;5062337;28;20468;-73
2024/03/24 05:24:10;;;;;;;6.43;2.10;;;5.90;99.90;;;;;;5066572;28;20537;-73
2024/03/24 05:26:57;;;;;;;2.63;1.73;;;5.80;99.90;;;;;;5068100;28;20248;-73
2024/03/24 05:29:41;;;;;;;4.90;2.07;;;5.80;99.90;;;;;;5060542;28;20236;-73
2024/03/24 05:32:27;;;;;;;4.82;2.05;;;5.80;99.90;;;;;;5058435;28;20457;-73
2024/03/24 05:35:11;;;;;;;5.60;1.83;;;5.80;99.90;;;;;;5060720;28;20206;-74
2024/03/24 05:37:57;;;;;;;3.67;2.50;;;5.80;99.90;;;;;;5065211;28;20455;-72
2024/03/24 05:40:43;;;;;;;4.00;2.70;;;5.80;99.90;;;;;;5068224;28;20440;-72
2024/03/24 05:43:29;;;;;;;7.30;2.20;;;5.80;99.90;;;;;;5061015;28;20674;-73
2024/03/24 05:46:15;;;;;;;3.80;2.10;;;5.80;99.90;;;;;;5065818;28;20455;-74
2024/03/24 05:48:59;;;;;;;4.27;2.60;;;5.80;99.90;;;;;;5070851;28;20220;-72
2024/03/24 05:51:45;;;;;;;4.50;2.13;;;5.90;99.90;;;;;;5065194;28;20451;-73
2024/03/24 05:54:30;;;;;;;7.43;2.37;;;6.00;99.90;;;;;;5067810;28;20441;-75
2024/03/24 05:57:15;;;;;;;4.53;1.95;;;6.00;99.90;;;;;;5068068;28;20944;-72
2024/03/24 06:00:03;;;;;;;8.43;3.00;;;5.90;99.90;;;;;;5063270;28;20227;-73
2024/03/24 06:02:48;;;;;;;5.13;2.40;;;5.90;99.90;;;;;;5063420;28;21875;-73
2024/03/24 06:05:35;;;;;;;3.38;1.88;;;5.90;99.90;;;;;;5065334;28;20213;-70
2024/03/24 06:08:22;;;;;;;4.87;2.10;;;6.00;99.90;;;;;;5066347;28;20208;-70
2024/03/24 06:11:07;;;;;;;6.10;2.30;;;6.00;99.90;;;;;;5065406;28;20474;-71
2024/03/24 06:13:52;;;;;;;3.90;2.40;;;6.00;99.90;;;;;;5074506;28;20847;-75
2024/03/24 06:16:40;;;;;;;8.07;2.78;;;6.10;99.90;;;;;;5079163;28;20438;-73
2024/03/24 06:19:26;;;;;;;5.50;2.50;;;6.10;99.90;;;;;;5070405;28;20281;-73
2024/03/24 06:22:10;;;;;;;6.30;3.17;;;6.20;99.90;;;;;;5075069;28;20429;-73
2024/03/24 06:24:56;;;;;;;6.03;3.10;;;6.20;99.90;;;;;;5071523;28;21051;-73
2024/03/24 06:27:41;;;;;;;2.83;2.30;;;6.10;99.90;;;;;;5073252;28;20303;-74
2024/03/24 06:30:26;;;;;;;4.32;2.95;;;6.00;99.90;;;;;;5073416;28;20480;-73
2024/03/24 06:33:12;;;;;;;3.35;2.80;;;6.00;99.90;;;;;;5067365;28;20222;-74
2024/03/24 06:35:58;;;;;;;4.40;3.42;;;6.00;99.90;;;;;;5073290;28;20252;-73
2024/03/24 06:38:42;;;;;;;3.80;3.38;;;6.10;99.90;;;;;;5067203;28;20289;-72
2024/03/24 06:41:28;;;;;;;10.35;3.30;;;6.10;99.90;;;;;;5063449;28;20260;-75
2024/03/24 06:44:13;;;;;;;3.33;2.83;;;6.10;99.90;;;;;;5062449;28;20263;-73
2024/03/24 06:46:58;;;;;;;4.10;2.67;;;6.10;99.90;;;;;;5065218;28;20480;-74
2024/03/24 06:49:44;;;;;;;3.35;2.30;;;6.20;99.90;;;;;;5067167;28;20245;-73
2024/03/24 06:52:30;;;;;;;4.85;2.65;;;6.10;99.90;;;;;;5062893;28;20412;-73
2024/03/24 06:55:16;;;;;;;3.50;2.65;;;6.10;99.90;;;;;;5060550;28;20201;-72
2024/03/24 06:58:00;;;;;;;4.13;2.85;;;6.30;99.90;;;;;;5069407;28;20214;-73
2024/03/24 07:00:46;;;;;;;3.58;2.65;;;6.30;99.90;;;;;;5066303;28;20244;-73
2024/03/24 07:03:31;;;;;;;8.52;3.85;;;6.40;99.90;;;;;;5067220;28;20225;-73
2024/03/24 07:06:17;;;;;;;8.37;4.37;;;6.40;99.90;;;;;;5070748;28;20211;-74
2024/03/24 07:09:03;;;;;;;7.00;3.20;;;6.40;99.90;;;;;;5064723;28;20543;-73
2024/03/24 07:11:48;;;;;;;5.65;2.95;;;6.30;99.90;;;;;;5068847;28;20326;-74
2024/03/24 07:14:33;;;;;;;12.18;3.38;;;6.20;99.90;;;;;;5060009;28;20708;-73
2024/03/24 07:17:18;;;;;;;6.63;3.58;;;6.20;99.90;;;;;;5063348;28;20688;-74
2024/03/24 07:20:05;;;;;;;3.93;2.67;;;6.20;99.90;;;;;;5060226;28;20224;-73
2024/03/24 07:22:51;;;;;;;3.77;2.53;;;6.30;99.90;;;;;;5062352;28;20851;-72
2024/03/24 07:25:36;;;;;;;4.60;2.33;;;6.30;99.90;;;;;;5067733;28;20450;-73
2024/03/24 07:28:21;;;;;;;6.10;2.72;;;6.30;99.90;;;;;;5065023;28;20967;-72
2024/03/24 07:31:07;;;;;;;9.63;2.90;;;6.30;99.90;;;;;;5063661;28;20230;-73
2024/03/24 07:33:51;;;;;;;5.20;3.10;;;6.20;99.90;;;;;;5066795;28;20753;-75
2024/03/24 07:36:37;;;;;;;6.17;3.80;;;6.30;99.90;;;;;;5067637;28;20453;-73
2024/03/24 07:39:25;;;;;;;7.40;4.27;;;6.20;99.90;;;;;;5059674;28;20531;-73
2024/03/24 07:42:09;;;;;;;5.07;3.15;;;6.30;99.90;;;;;;5064130;28;20618;-72
2024/03/24 07:44:55;;;;;;;7.03;3.90;;;6.40;99.90;;;;;;5059915;28;20221;-72
2024/03/24 07:47:40;;;;;;;5.17;3.20;;;6.40;99.90;;;;;;5058375;28;20328;-73
2024/03/24 07:50:25;;;;;;;5.57;3.15;;;6.30;99.90;;;;;;5056219;28;20494;-72
2024/03/24 07:53:10;;;;;;;5.40;3.17;;;6.30;99.90;;;;;;5062084;28;20258;-73
2024/03/24 07:55:57;;;;;;;4.70;3.00;;;6.40;99.90;;;;;;5064224;28;20227;-72
2024/03/24 07:58:42;;;;;;;3.50;2.70;;;6.50;99.90;;;;;;5059002;28;20475;-72
2024/03/24 08:01:27;;;;;;;5.18;3.63;;;6.50;99.90;;;;;;5060056;28;20482;-74
2024/03/24 08:04:14;;;;;;;4.93;3.25;;;6.50;99.90;;;;;;5062655;28;20217;-73
2024/03/24 08:07:00;;;;;;;6.60;3.73;;;6.50;99.90;;;;;;5062046;28;20278;-73
2024/03/24 08:09:44;;;;;;;4.57;3.28;;;6.50;99.90;;;;;;5060363;28;20537;-73
2024/03/24 08:12:31;;;;;;;5.80;4.33;;;6.50;99.90;;;;;;5068539;28;20202;-73
2024/03/24 08:15:16;;;;;;;5.23;2.70;;;6.50;99.90;;;;;;5065447;28;20455;-73
2024/03/24 08:18:01;;;;;;;5.07;3.03;;;6.50;99.90;;;;;;5057087;28;20451;-74
2024/03/24 08:20:47;;;;;;;5.87;3.87;;;6.40;99.90;;;;;;5073552;28;20956;-74
2024/03/24 08:23:33;;;;;;;8.00;3.37;;;6.40;99.90;;;;;;5064237;28;20442;-74
2024/03/24 08:26:18;;;;;;;10.20;3.73;;;6.50;99.90;;;;;;5059180;28;20452;-73
2024/03/24 08:29:06;;;;;;;4.93;3.30;;;6.60;99.90;;;;;;5061015;28;20459;-73
2024/03/24 08:31:51;;;;;;;6.67;4.47;;;6.60;99.90;;;;;;5067050;28;20480;-73
2024/03/24 08:34:36;;;;;;;12.50;4.10;;;6.60;99.90;;;;;;5065696;28;20450;-73
2024/03/24 08:37:21;;;;;;;6.80;4.20;;;6.60;99.90;;;;;;5060184;28;20460;-73
2024/03/24 08:40:08;;;;;;;5.77;3.80;;;6.70;99.90;;;;;;5064597;28;20484;-74
2024/03/24 08:42:53;;;;;;;11.93;3.43;;;6.70;99.90;;;;;;5064828;28;20810;-73
2024/03/24 08:45:40;;;;;;;7.40;3.60;;;6.60;99.90;;;;;;5061558;28;20479;-73
2024/03/24 08:48:24;;;;;;;8.90;3.67;;;6.70;99.90;;;;;;5062974;28;20839;-77
2024/03/24 08:51:10;;;;;;;7.70;4.40;;;6.70;99.90;;;;;;5079098;23;20481;-74
2024/03/24 08:53:55;;;;;;;5.17;3.30;;;6.80;99.90;;;;;;5065064;28;20446;-74
2024/03/24 08:56:41;;;;;;;5.90;3.40;;;6.80;99.90;;;;;;5060873;28;20532;-74
2024/03/24 08:59:25;;;;;;;5.80;3.47;;;6.80;99.90;;;;;;5064699;28;20518;-74
2024/03/24 09:02:13;;;;;;;5.60;3.50;;;6.80;99.90;;;;;;5063581;28;20966;-74
2024/03/24 09:04:57;;;;;;;11.00;4.20;;;6.80;99.90;;;;;;5067559;28;20554;-74
2024/03/24 09:07:43;;;;;;;6.20;3.53;;;6.80;99.90;;;;;;5057708;28;20511;-74
2024/03/24 09:10:27;;;;;;;7.23;3.77;;;6.90;99.90;;;;;;5055902;28;20459;-74
2024/03/24 09:13:13;;;;;;;5.83;2.97;;;6.90;99.90;;;;;;5054624;28;20464;-74
2024/03/24 09:15:58;;;;;;;5.37;3.50;;;6.70;99.90;;;;;;5058553;28;20472;-74
2024/03/24 09:18:47;;;;;;;9.97;4.40;;;6.80;99.90;;;;;;5057887;28;20491;-74
2024/03/24 09:21:31;;;;;;;10.23;3.97;;;6.70;99.90;;;;;;5062791;28;20895;-74
2024/03/24 09:24:17;;;;;;;5.50;3.30;;;6.70;99.90;;;;;;5060718;28;20840;-74
2024/03/24 09:27:02;;;;;;;16.40;4.40;;;6.70;99.90;;;;;;5058728;28;20812;-74
2024/03/24 09:29:48;;;;;;;6.67;3.23;;;6.80;99.90;;;;;;5058593;28;20521;-74
2024/03/24 09:32:33;;;;;;;7.95;4.10;;;6.80;99.90;;;;;;5058752;28;20514;-74
2024/03/24 09:35:20;;;;;;;5.10;3.20;;;6.80;99.90;;;;;;5057575;28;20214;-74
2024/03/24 09:38:06;;;;;;;5.43;3.63;;;6.90;99.90;;;;;;5058432;28;20461;-75
2024/03/24 09:40:51;;;;;;;7.53;4.13;;;6.90;99.90;;;;;;5059541;28;20479;-74
2024/03/24 09:43:36;;;;;;;6.53;3.70;;;7.00;99.90;;;;;;5062249;28;21055;-74
2024/03/24 09:46:22;;;;;;;7.77;3.40;;;6.90;99.90;;;;;;5056775;28;20456;-74
2024/03/24 09:49:13;;;;;;;11.40;4.20;;;7.00;99.90;;;;;;5060324;28;20474;-74
2024/03/24 09:52:01;;;;;;;7.90;4.30;;;7.10;99.90;;;;;;5056193;28;20472;-74
2024/03/24 09:54:47;;;;;;;6.00;4.17;;;7.00;99.90;;;;;;5061237;28;20197;-74
2024/03/24 09:57:36;;;;;;;6.00;3.90;;;7.10;99.90;;;;;;5060081;28;21143;-74
2024/03/24 10:00:21;;;;;;;6.67;4.37;;;7.10;99.90;;;;;;5054650;28;20795;-74
2024/03/24 10:03:06;;;;;;;11.63;3.90;;;7.10;99.90;;;;;;5058777;28;20457;-74
2024/03/24 10:05:51;;;;;;;8.20;4.30;;;7.20;99.90;;;;;;5059797;28;20467;-74
2024/03/24 10:08:38;;;;;;;11.70;4.63;;;7.20;99.90;;;;;;5060534;28;20486;-74
2024/03/24 10:11:27;;;;;;;12.83;4.87;;;7.10;99.90;;;;;;5066176;28;20478;-74
2024/03/24 10:14:14;;;;;;;10.00;5.47;;;7.20;99.90;;;;;;5058300;28;20450;-74
2024/03/24 10:17:11;;;;;;;9.40;5.13;;;7.20;99.90;;;;;;5057772;28;20467;-74
2024/03/24 10:20:01;;;;;;;15.30;5.23;;;7.30;99.90;;;;;;5059623;28;20542;-74
2024/03/24 10:22:54;;;;;;;13.35;4.65;;;7.40;99.90;;;;;;5061562;28;20801;-74
2024/03/24 10:25:41;;;;;;;9.45;4.50;;;7.30;99.90;;;;;;5060516;28;20275;-74
2024/03/24 10:28:27;;;;;;;9.43;4.70;;;7.30;99.90;;;;;;5059287;28;20836;-74
2024/03/24 10:31:12;;;;;;;16.83;7.27;;;7.40;99.90;;;;;;5063152;28;20442;-74
2024/03/24 10:33:57;;;;;;;10.40;5.10;;;7.30;99.90;;;;;;5062605;28;20994;-74
2024/03/24 10:36:44;;;;;;;11.70;5.10;;;7.30;99.90;;;;;;5060314;28;20564;-74
2024/03/24 10:39:29;;;;;;;9.53;4.10;;;7.30;99.90;;;;;;5063384;28;20461;-74
2024/03/24 10:42:19;;;;;;;6.67;3.50;;;7.20;99.90;;;;;;5061858;28;20905;-74
2024/03/24 10:45:05;;;;;;;7.33;4.17;;;7.30;99.90;;;;;;5061722;28;20612;-74
2024/03/24 10:47:54;;;;;;;12.73;3.80;;;7.30;99.90;;;;;;5063382;28;20996;-74
2024/03/24 10:50:40;;;;;;;7.93;4.10;;;7.30;99.90;;;;;;5062325;28;20562;-74
2024/03/24 10:53:28;;;;;;;17.77;6.07;;;7.30;99.90;;;;;;5061431;28;20477;-74
2024/03/24 10:56:15;;;;;;;11.27;5.47;;;7.30;99.90;;;;;;5060595;28;20453;-74
2024/03/24 10:59:04;;;;;;;25.33;8.27;;;7.40;99.90;;;;;;5062114;28;20482;-74
2024/03/24 11:01:48;;;;;;;14.20;5.63;;;7.40;99.90;;;;;;5063621;28;20452;-75
2024/03/24 11:04:34;;;;;;;9.07;4.47;;;7.40;99.90;;;;;;5064139;28;20464;-74
2024/03/24 11:07:20;;;;;;;15.37;5.43;;;7.50;99.90;;;;;;5062016;28;21031;-75
2024/03/24 11:10:07;;;;;;;17.20;4.40;;;7.40;99.90;;;;;;5062667;28;20475;-75
2024/03/24 11:12:52;;;;;;;8.63;4.00;;;7.50;99.90;;;;;;5072568;28;20426;-74
2024/03/24 11:15:41;;;;;;;9.50;4.60;;;7.60;99.90;;;;;;5058043;28;20988;-74
2024/03/24 11:18:26;;;;;;;15.60;5.88;;;7.50;99.90;;;;;;5060334;28;21275;-74
2024/03/24 11:21:30;;;;;;;4.63;3.40;;;7.50;99.90;;;;;;5062383;28;20292;-74
2024/03/24 11:24:24;;;;;;;14.07;5.03;;;7.50;99.90;;;;;;5064486;28;20518;-74
2024/03/24 11:27:13;;;;;;;5.13;2.65;;;7.60;99.90;;;;;;5067360;28;20813;-74
2024/03/24 11:29:58;;;;;;;9.97;3.50;;;7.60;99.90;;;;;;5058972;28;20231;-74
2024/03/24 11:32:52;;;;;;;6.60;3.33;;;7.70;99.90;;;;;;5064882;28;21128;-74
2024/03/24 11:35:37;;;;;;;6.03;2.63;;;7.70;99.90;;;;;;5058185;28;20567;-74
2024/03/24 11:38:23;;;;;;;17.83;5.87;;;7.70;99.90;;;;;;5059197;28;20468;-75
2024/03/24 11:41:13;;;;;;;7.93;3.83;;;7.80;99.90;;;;;;5064243;28;20472;-74
2024/03/24 11:44:00;;;;;;;6.17;3.40;;;7.80;99.90;;;;;;5067842;28;20834;-74
2024/03/24 11:47:00;;;;;;;9.93;3.43;;;7.90;99.90;;;;;;5063168;28;20454;-74
2024/03/24 11:49:50;;;;;;;14.20;6.13;;;7.80;99.90;;;;;;5063586;28;20542;-74
2024/03/24 11:52:36;;;;;;;11.17;4.87;;;7.90;99.90;;;;;;5067748;28;20880;-74
2024/03/24 11:55:22;;;;;;;6.23;3.33;;;7.90;99.90;;;;;;5065050;28;20508;-74
2024/03/24 11:58:07;;;;;;;12.30;3.70;;;8.00;99.90;;;;;;5068343;28;20506;-74
2024/03/24 12:00:53;;;;;;;13.07;5.00;;;8.00;99.90;;;;;;5065796;28;20476;-74
2024/03/24 12:03:38;;;;;;;16.30;5.50;;;8.10;99.90;;;;;;5066363;28;20861;-75
2024/03/24 12:06:24;;;;;;;31.23;9.00;;;8.10;99.90;;;;;;5064773;28;20512;-75
2024/03/24 12:09:12;;;;;;;8.20;3.53;;;8.20;99.90;;;;;;5065888;28;21826;-74
2024/03/24 12:11:58;;;;;;;11.40;4.50;;;8.20;99.90;;;;;;5064108;28;20560;-74
2024/03/24 12:14:43;;;;;;;28.67;7.80;;;8.20;99.90;;;;;;5064115;28;20445;-74
2024/03/24 12:17:28;;;;;;;14.47;4.73;;;8.30;99.90;;;;;;5065767;28;20453;-74
2024/03/24 12:20:15;;;;;;;29.07;10.63;;;8.30;99.90;;;;;;5061614;28;20464;-74
2024/03/24 12:23:02;;;;;;;12.43;4.77;;;8.40;99.90;;;;;;5063635;28;21234;-74
2024/03/24 12:25:49;;;;;;;48.57;15.37;;;8.40;99.90;;;;;;5064785;28;20480;-74
2024/03/24 12:28:35;;;;;;;19.90;7.90;;;8.40;99.90;;;;;;5065430;28;20961;-74
2024/03/24 12:31:21;;;;;;;14.03;4.43;;;8.30;99.90;;;;;;5063920;28;20830;-74
2024/03/24 12:34:06;;;;;;;22.87;7.03;;;8.10;99.90;;;;;;5062568;28;20686;-74
2024/03/24 12:36:51;;;;;;;14.93;5.07;;;8.10;99.90;;;;;;5062047;28;20981;-74
2024/03/24 12:39:38;;;;;;;33.03;10.97;;;8.20;99.90;;;;;;5063556;28;20492;-74
2024/03/24 12:42:25;;;;;;;12.57;4.93;;;8.30;99.90;;;;;;5064369;28;20474;-74
2024/03/24 12:45:10;;;;;;;19.40;6.77;;;8.30;99.90;;;;;;5062124;28;20985;-74
2024/03/24 12:47:56;;;;;;;8.87;3.43;;;8.40;99.90;;;;;;5066649;28;20458;-74
2024/03/24 12:50:41;;;;;;;5.37;2.63;;;8.50;99.90;;;;;;5064485;28;20530;-74
2024/03/24 12:53:45;;;;;;;5.87;3.03;;;8.60;99.90;;;;;;5063526;28;20472;-74
2024/03/24 12:56:31;;;;;;;6.20;3.40;;;8.80;99.90;;;;;;5062406;28;20957;-74
2024/03/24 12:59:18;;;;;;;5.07;2.50;;;9.00;99.90;;;;;;5064650;28;20469;-75
2024/03/24 13:02:05;;;;;;;6.03;2.10;;;9.20;99.90;;;;;;5068334;28;20426;-74
2024/03/24 13:04:51;;;;;;;4.27;2.00;;;9.10;93.10;;;;;;5065235;28;20500;-74
2024/03/24 13:07:36;;;;;;;3.57;2.30;;;9.10;91.50;;;;;;5067245;28;20485;-75
2024/03/24 13:10:26;;;;;;;5.97;2.07;;;9.00;89.20;;;;;;5060447;28;20436;-74
2024/03/24 13:13:13;;;;;;;3.97;2.23;;;8.90;90.50;;;;;;5058844;28;20466;-74
2024/03/24 13:15:58;;;;;;;5.23;2.00;;;8.90;91.50;;;;;;5062980;28;20820;-75
2024/03/24 13:18:48;;;;;;;3.90;2.00;;;8.90;91.70;;;;;;5058882;28;20466;-75
2024/03/24 13:21:37;;;;;;;4.77;2.00;;;8.90;92.20;;;;;;5067723;28;20924;-74
2024/03/24 13:24:24;;;;;;;2.87;1.93;;;8.80;91.70;;;;;;5071086;28;20422;-75
2024/03/24 13:27:16;;;;;;;6.20;1.70;;;8.80;92.80;;;;;;5072957;28;20584;-74
2024/03/24 13:30:04;;;;;;;4.03;2.17;;;8.80;93.70;;;;;;5069240;28;20500;-74
2024/03/24 13:32:49;;;;;;;3.37;1.97;;;8.80;92.40;;;;;;5060687;28;20543;-74
2024/03/24 13:35:35;;;;;;;4.47;3.40;;;8.90;91.80;;;;;;5061002;28;20874;-74
2024/03/24 13:38:33;;;;;;;4.80;2.40;;;8.80;91.50;;;;;;5059027;28;20518;-75
2024/03/24 13:41:27;;;;;;;2.97;1.87;;;8.80;92.20;;;;;;5060392;28;20528;-74
2024/03/24 13:44:21;;;;;;;5.30;2.33;;;8.80;92.30;;;;;;5056951;28;20444;-75
2024/03/24 13:47:14;;;;;;;5.27;2.43;;;8.80;91.00;;;;;;5058764;28;20788;-74
2024/03/24 13:50:01;;;;;;;5.80;2.60;;;8.90;91.60;;;;;;5063796;28;20451;-73
2024/03/24 13:52:47;;;;;;;8.10;2.80;;;8.80;90.30;;;;;;5058070;28;20442;-73
2024/03/24 13:55:33;;;;;;;4.53;2.40;;;8.90;91.20;;;;;;5067812;28;21123;-73
2024/03/24 13:58:18;;;;;;;7.07;2.80;;;8.90;91.50;;;;;;5069114;28;20464;-73
2024/03/24 14:01:04;;;;;;;5.17;2.40;;;8.90;90.90;;;;;;5063123;28;20499;-74
2024/03/24 14:03:51;;;;;;;8.47;2.80;;;8.80;91.10;;;;;;5073165;28;20465;-73
2024/03/24 14:06:37;;;;;;;4.40;2.70;;;8.80;91.40;;;;;;5074705;28;20480;-73
2024/03/24 14:09:22;;;;;;;5.00;2.17;;;9.00;91.50;;;;;;5078476;28;20461;-73
2024/03/24 14:12:08;;;;;;;4.77;2.20;;;9.30;92.10;;;;;;5080456;28;20484;-74
2024/03/24 14:15:02;;;;;;;5.03;1.90;;;9.60;89.60;;;;;;5082133;28;20433;-73
2024/03/24 14:17:54;;;;;;;4.30;1.73;;;9.90;83.80;;;;;;5078731;28;20477;-73
2024/03/24 14:20:49;;;;;;;5.43;1.80;;;10.10;80.40;;;;;;5084634;28;20439;-73
2024/03/24 14:23:49;;;;;;;5.13;2.20;;;10.20;73.20;;;;;;5071983;28;20423;-73
2024/03/24 14:26:33;;;;;;;3.80;2.10;;;10.20;73.70;;;;;;5072385;28;20452;-73
2024/03/24 14:29:19;;;;;;;4.90;1.80;;;10.20;68.20;;;;;;5081163;28;20437;-74
2024/03/24 14:32:04;;;;;;;3.10;1.40;;;10.10;67.30;;;;;;5072562;28;20518;-74
2024/03/24 14:34:50;;;;;;;3.03;1.60;;;10.00;67.10;;;;;;5072608;28;20521;-74